Time,TemperatureF,DewpointF,PressureIn,WindDirection,WindDirectionDegrees,WindSpeedMPH,WindSpeedGustMPH,Humidity,HourlyPrecipIn,Conditions,Clouds,dailyrainin,SoftwareType,DateUTC
2013-03-06 00:01:00,39.0,39.0,-100.00,WSW,253,7.0,11.0,100,-99.99,,,-99.99,,2013-03-06 08:01:00,
2013-03-06 00:11:00,39.0,39.0,-100.00,WSW,257,8.0,11.0,100,-99.99,,,-99.99,,2013-03-06 08:11:00,
2013-03-06 00:21:00,39.0,39.0,-100.00,WSW,243,8.0,13.0,100,-99.99,,,-99.99,,2013-03-06 08:21:00,
2013-03-06 00:31:00,39.0,39.0,-100.00,WSW,240,7.0,10.0,100,-99.99,,,-99.99,,2013-03-06 08:31:00,
2013-03-06 00:42:00,39.0,39.0,-100.00,WSW,245,7.0,10.0,100,-99.99,,,-99.99,,2013-03-06 08:42:00,
2013-03-06 00:52:00,39.0,39.0,-100.00,SW,230,8.0,11.0,100,-99.99,,,-99.99,,2013-03-06 08:52:00,
2013-03-06 01:01:00,39.0,39.0,-100.00,SW,230,8.0,11.0,100,-99.99,,,-99.99,,2013-03-06 09:01:00,
2013-03-06 01:12:00,39.0,39.0,-100.00,SW,233,9.0,13.0,100,-99.99,,,-99.99,,2013-03-06 09:12:00,
2013-03-06 01:21:00,38.0,38.0,-100.00,SW,226,10.0,14.0,100,-99.99,,,-99.99,,2013-03-06 09:21:00,
2013-03-06 01:31:00,38.0,38.0,-100.00,SW,233,10.0,14.0,100,-99.99,,,-99.99,,2013-03-06 09:31:00,
2013-03-06 01:41:00,39.0,39.0,-100.00,WSW,244,10.0,14.0,100,-99.99,,,-99.99,,2013-03-06 09:41:00,
2013-03-06 01:51:00,39.0,39.0,-100.00,WSW,255,9.0,14.0,100,-99.99,,,-99.99,,2013-03-06 09:51:00,
2013-03-06 02:01:00,39.0,39.0,-100.00,West,263,10.0,15.0,100,-99.99,,,-99.99,,2013-03-06 10:01:00,
2013-03-06 02:11:00,39.0,39.0,-100.00,WSW,252,10.0,14.0,100,-99.99,,,-99.99,,2013-03-06 10:11:00,
2013-03-06 02:21:00,39.0,39.0,-100.00,WSW,257,9.0,13.0,100,-99.99,,,-99.99,,2013-03-06 10:21:00,
2013-03-06 02:31:00,39.0,39.0,-100.00,WSW,253,8.0,12.0,100,-99.99,,,-99.99,,2013-03-06 10:31:00,
2013-03-06 02:41:00,38.0,38.0,-100.00,WSW,253,10.0,13.0,100,-99.99,,,-99.99,,2013-03-06 10:41:00,
2013-03-06 02:51:00,38.0,38.0,-100.00,West,267,10.0,16.0,100,-99.99,,,-99.99,,2013-03-06 10:51:00,
2013-03-06 03:01:00,38.0,38.0,-100.00,West,267,10.0,16.0,100,-99.99,,,-99.99,,2013-03-06 11:01:00,
2013-03-06 03:11:00,38.0,38.0,-100.00,West,260,9.0,14.0,100,-99.99,,,-99.99,,2013-03-06 11:11:00,
2013-03-06 03:22:00,38.0,38.0,-100.00,WSW,253,9.0,14.0,100,-99.99,,,-99.99,,2013-03-06 11:22:00,
2013-03-06 03:31:00,38.0,37.0,-100.00,WSW,246,8.0,12.0,97,-99.99,,,-99.99,,2013-03-06 11:31:00,
2013-03-06 03:42:00,38.0,37.0,-100.00,WSW,247,9.0,13.0,98,-99.99,,,-99.99,,2013-03-06 11:42:00,
2013-03-06 03:52:00,38.0,37.0,-100.00,WSW,250,9.0,13.0,98,-99.99,,,-99.99,,2013-03-06 11:52:00,
2013-03-06 04:01:00,38.0,37.0,-100.00,WSW,253,8.0,12.0,98,-99.99,,,-99.99,,2013-03-06 12:01:00,
2013-03-06 04:11:00,38.0,37.0,-100.00,WSW,251,9.0,14.0,97,-99.99,,,-99.99,,2013-03-06 12:11:00,
2013-03-06 04:21:00,37.0,36.0,-100.00,WSW,258,10.0,15.0,97,-99.99,,,-99.99,,2013-03-06 12:21:00,
2013-03-06 04:32:00,37.0,36.0,-100.00,West,266,9.0,13.0,97,-99.99,,,-99.99,,2013-03-06 12:32:00,
2013-03-06 04:42:00,37.0,36.0,-100.00,West,279,10.0,13.0,95,-99.99,,,-99.99,,2013-03-06 12:42:00,
2013-03-06 04:52:00,37.0,36.0,-100.00,West,278,11.0,14.0,95,-99.99,,,-99.99,,2013-03-06 12:52:00,
2013-03-06 05:01:00,37.0,36.0,-100.00,West,271,8.0,13.0,97,-99.99,,,-99.99,,2013-03-06 13:01:00,
2013-03-06 05:11:00,37.0,36.0,-100.00,West,260,9.0,14.0,97,-99.99,,,-99.99,,2013-03-06 13:11:00,
2013-03-06 05:21:00,37.0,36.0,-100.00,WSW,257,8.0,12.0,96,-99.99,,,-99.99,,2013-03-06 13:21:00,
2013-03-06 05:31:00,37.0,36.0,-100.00,WSW,254,7.0,9.0,96,-99.99,,,-99.99,,2013-03-06 13:31:00,
2013-03-06 05:42:00,37.0,36.0,-100.00,WSW,258,6.0,9.0,96,-99.99,,,-99.99,,2013-03-06 13:42:00,
2013-03-06 05:51:00,37.0,36.0,-100.00,WSW,254,4.0,7.0,97,-99.99,,,-99.99,,2013-03-06 13:51:00,
2013-03-06 06:01:00,36.0,35.0,-100.00,SW,235,5.0,6.0,98,-99.99,,,-99.99,,2013-03-06 14:01:00,
2013-03-06 06:11:00,36.0,35.0,-100.00,WSW,250,5.0,8.0,98,-99.99,,,-99.99,,2013-03-06 14:11:00,
2013-03-06 06:21:00,36.0,36.0,-100.00,West,263,6.0,7.0,99,-99.99,,,-99.99,,2013-03-06 14:21:00,
2013-03-06 06:32:00,36.0,36.0,-100.00,West,266,7.0,10.0,99,-99.99,,,-99.99,,2013-03-06 14:32:00,
2013-03-06 06:41:00,36.0,36.0,-100.00,West,265,8.0,10.0,99,-99.99,,,-99.99,,2013-03-06 14:41:00,
2013-03-06 06:52:00,36.0,36.0,-100.00,West,269,7.0,11.0,99,-99.99,,,-99.99,,2013-03-06 14:52:00,
2013-03-06 07:01:00,36.0,36.0,-100.00,West,281,8.0,15.0,99,-99.99,,,-99.99,,2013-03-06 15:01:00,
2013-03-06 07:11:00,36.0,35.0,-100.00,WNW,287,10.0,14.0,97,-99.99,,,-99.99,,2013-03-06 15:11:00,
2013-03-06 07:21:00,36.0,35.0,-100.00,WNW,286,10.0,15.0,96,-99.99,,,-99.99,,2013-03-06 15:21:00,
2013-03-06 07:32:00,37.0,36.0,-100.00,WNW,285,11.0,15.0,95,-99.99,,,-99.99,,2013-03-06 15:32:00,
2013-03-06 07:41:00,37.0,36.0,-100.00,WNW,292,12.0,18.0,96,-99.99,,,-99.99,,2013-03-06 15:41:00,
2013-03-06 07:52:00,37.0,36.0,-100.00,WNW,292,12.0,18.0,96,-99.99,,,-99.99,,2013-03-06 15:52:00,
2013-03-06 08:01:00,37.0,36.0,-100.00,WNW,285,9.0,14.0,98,-99.99,,,-99.99,,2013-03-06 16:01:00,
2013-03-06 08:11:00,38.0,37.0,-100.00,West,275,8.0,11.0,96,-99.99,,,-99.99,,2013-03-06 16:11:00,
2013-03-06 08:21:00,39.0,38.0,-100.00,West,261,8.0,12.0,95,-99.99,,,-99.99,,2013-03-06 16:21:00,
2013-03-06 08:32:00,39.0,37.0,-100.00,WSW,243,6.0,10.0,91,-99.99,,,-99.99,,2013-03-06 16:32:00,
2013-03-06 08:41:00,40.0,36.0,-100.00,WSW,238,5.0,9.0,86,-99.99,,,-99.99,,2013-03-06 16:41:00,
2013-03-06 08:51:00,41.0,36.0,-100.00,WSW,237,4.0,8.0,82,-99.99,,,-99.99,,2013-03-06 16:51:00,
2013-03-06 09:01:00,41.0,36.0,-100.00,WSW,240,4.0,9.0,81,-99.99,,,-99.99,,2013-03-06 17:01:00,
2013-03-06 09:11:00,42.0,36.0,-100.00,SW,233,5.0,8.0,79,-99.99,,,-99.99,,2013-03-06 17:11:00,
2013-03-06 09:21:00,43.0,37.0,-100.00,SW,235,4.0,8.0,78,-99.99,,,-99.99,,2013-03-06 17:21:00,
2013-03-06 09:31:00,43.0,37.0,-100.00,SW,225,6.0,9.0,78,-99.99,,,-99.99,,2013-03-06 17:31:00,
2013-03-06 09:41:00,43.0,36.0,-100.00,SW,221,5.0,10.0,77,-99.99,,,-99.99,,2013-03-06 17:41:00,
2013-03-06 09:52:00,44.0,36.0,-100.00,SSW,205,5.0,9.0,74,-99.99,,,-99.99,,2013-03-06 17:52:00,
2013-03-06 10:01:00,45.0,36.0,-100.00,SW,216,5.0,8.0,71,-99.99,,,-99.99,,2013-03-06 18:01:00,
2013-03-06 10:28:00,47.0,36.0,-100.00,WSW,238,7.0,11.0,66,-99.99,,,-99.99,,2013-03-06 18:28:00,
2013-03-06 10:42:00,48.0,36.0,-100.00,SW,235,8.0,13.0,64,-99.99,,,-99.99,,2013-03-06 18:42:00,
2013-03-06 10:52:00,48.0,37.0,-100.00,SW,227,9.0,15.0,65,-99.99,,,-99.99,,2013-03-06 18:52:00,
2013-03-06 11:02:00,48.0,37.0,-100.00,SW,224,9.0,14.0,66,-99.99,,,-99.99,,2013-03-06 19:02:00,
2013-03-06 11:11:00,49.0,38.0,-100.00,SW,228,10.0,16.0,65,-99.99,,,-99.99,,2013-03-06 19:11:00,
2013-03-06 11:21:00,49.0,38.0,-100.00,SW,223,11.0,15.0,65,-99.99,,,-99.99,,2013-03-06 19:21:00,
2013-03-06 11:32:00,49.0,37.0,-100.00,SW,221,9.0,14.0,64,-99.99,,,-99.99,,2013-03-06 19:32:00,
2013-03-06 11:42:00,50.0,38.0,-100.00,SSW,208,10.0,14.0,62,-99.99,,,-99.99,,2013-03-06 19:42:00,
2013-03-06 11:52:00,51.0,36.0,-100.00,SW,231,8.0,14.0,56,-99.99,,,-99.99,,2013-03-06 19:52:00,
2013-03-06 12:01:00,52.0,36.0,-100.00,WSW,253,10.0,14.0,54,-99.99,,,-99.99,,2013-03-06 20:01:00,
2013-03-06 12:11:00,52.0,35.0,-100.00,WSW,256,9.0,14.0,53,-99.99,,,-99.99,,2013-03-06 20:11:00,
2013-03-06 12:22:00,53.0,36.0,-100.00,WSW,249,9.0,14.0,52,-99.99,,,-99.99,,2013-03-06 20:22:00,
2013-03-06 12:32:00,53.0,35.0,-100.00,WSW,246,9.0,14.0,51,-99.99,,,-99.99,,2013-03-06 20:32:00,
2013-03-06 12:42:00,53.0,36.0,-100.00,WSW,257,8.0,15.0,52,-99.99,,,-99.99,,2013-03-06 20:42:00,
2013-03-06 12:52:00,54.0,35.0,-100.00,WSW,253,7.0,13.0,49,-99.99,,,-99.99,,2013-03-06 20:52:00,
2013-03-06 13:01:00,54.0,34.0,-100.00,SW,229,7.0,13.0,46,-99.99,,,-99.99,,2013-03-06 21:01:00,
2013-03-06 13:11:00,54.0,35.0,-100.00,SW,224,8.0,12.0,49,-99.99,,,-99.99,,2013-03-06 21:11:00,
2013-03-06 13:21:00,55.0,34.0,-100.00,WSW,256,8.0,14.0,45,-99.99,,,-99.99,,2013-03-06 21:21:00,
2013-03-06 13:31:00,55.0,34.0,-100.00,SW,227,8.0,16.0,45,-99.99,,,-99.99,,2013-03-06 21:31:00,
2013-03-06 13:42:00,56.0,36.0,-100.00,SW,224,9.0,16.0,47,-99.99,,,-99.99,,2013-03-06 21:42:00,
2013-03-06 13:51:00,56.0,34.0,-100.00,WSW,249,11.0,17.0,44,-99.99,,,-99.99,,2013-03-06 21:51:00,
2013-03-06 14:01:00,55.0,35.0,-100.00,WSW,247,11.0,16.0,47,-99.99,,,-99.99,,2013-03-06 22:01:00,
2013-03-06 14:11:00,54.0,35.0,-100.00,West,266,13.0,19.0,49,-99.99,,,-99.99,,2013-03-06 22:11:00,
2013-03-06 14:21:00,54.0,36.0,-100.00,WSW,248,15.0,22.0,50,-99.99,,,-99.99,,2013-03-06 22:21:00,
2013-03-06 14:31:00,53.0,36.0,-100.00,WSW,244,15.0,23.0,53,-99.99,,,-99.99,,2013-03-06 22:31:00,
2013-03-06 14:41:00,53.0,36.0,-100.00,WSW,249,14.0,19.0,53,-99.99,,,-99.99,,2013-03-06 22:41:00,
2013-03-06 14:51:00,53.0,36.0,-100.00,WSW,253,14.0,20.0,53,-99.99,,,-99.99,,2013-03-06 22:51:00,
2013-03-06 15:01:00,52.0,36.0,-100.00,West,263,13.0,20.0,54,-99.99,,,-99.99,,2013-03-06 23:01:00,
2013-03-06 15:11:00,53.0,36.0,-100.00,WNW,286,12.0,20.0,53,-99.99,,,-99.99,,2013-03-06 23:11:00,
2013-03-06 15:21:00,52.0,36.0,-100.00,West,264,11.0,16.0,54,-99.99,,,-99.99,,2013-03-06 23:21:00,
2013-03-06 15:31:00,52.0,36.0,-100.00,West,277,12.0,19.0,54,-99.99,,,-99.99,,2013-03-06 23:31:00,
2013-03-06 15:41:00,52.0,36.0,-100.00,West,275,9.0,15.0,55,-99.99,,,-99.99,,2013-03-06 23:41:00,
2013-03-06 15:52:00,52.0,36.0,-100.00,West,275,9.0,15.0,55,-99.99,,,-99.99,,2013-03-06 23:52:00,
2013-03-06 16:01:00,52.0,36.0,-100.00,West,278,11.0,17.0,54,-99.99,,,-99.99,,2013-03-07 00:01:00,
2013-03-06 16:11:00,52.0,36.0,-100.00,WNW,283,11.0,16.0,55,-99.99,,,-99.99,,2013-03-07 00:11:00,
2013-03-06 16:21:00,51.0,36.0,-100.00,West,271,10.0,17.0,57,-99.99,,,-99.99,,2013-03-07 00:21:00,
2013-03-06 16:32:00,51.0,37.0,-100.00,West,270,9.0,14.0,58,-99.99,,,-99.99,,2013-03-07 00:32:00,
2013-03-06 16:41:00,51.0,37.0,-100.00,West,270,9.0,14.0,58,-99.99,,,-99.99,,2013-03-07 00:41:00,
2013-03-06 16:51:00,51.0,38.0,-100.00,WSW,254,12.0,18.0,60,-99.99,,,-99.99,,2013-03-07 00:51:00,
2013-03-06 17:01:00,50.0,37.0,-100.00,WSW,256,11.0,17.0,61,-99.99,,,-99.99,,2013-03-07 01:01:00,
2013-03-06 17:11:00,50.0,38.0,-100.00,West,265,11.0,18.0,63,-99.99,,,-99.99,,2013-03-07 01:11:00,
2013-03-06 17:21:00,50.0,38.0,-100.00,West,261,11.0,16.0,64,-99.99,,,-99.99,,2013-03-07 01:21:00,
2013-03-06 17:31:00,49.0,38.0,-100.00,West,260,10.0,16.0,65,-99.99,,,-99.99,,2013-03-07 01:31:00,
2013-03-06 17:41:00,48.0,38.0,-100.00,WSW,256,11.0,16.0,67,-99.99,,,-99.99,,2013-03-07 01:41:00,
2013-03-06 17:51:00,47.0,38.0,-100.00,West,261,11.0,16.0,71,-99.99,,,-99.99,,2013-03-07 01:51:00,
2013-03-06 18:01:00,46.0,38.0,-100.00,West,265,9.0,16.0,73,-99.99,,,-99.99,,2013-03-07 02:01:00,
2013-03-06 18:11:00,46.0,38.0,-100.00,West,266,8.0,13.0,74,-99.99,,,-99.99,,2013-03-07 02:11:00,
2013-03-06 18:21:00,45.0,38.0,-100.00,West,270,8.0,13.0,77,-99.99,,,-99.99,,2013-03-07 02:21:00,
2013-03-06 18:31:00,44.0,38.0,-100.00,West,265,7.0,10.0,80,-99.99,,,-99.99,,2013-03-07 02:31:00,
2013-03-06 18:41:00,44.0,38.0,-100.00,West,265,7.0,10.0,80,-99.99,,,-99.99,,2013-03-07 02:41:00,
2013-03-06 18:51:00,44.0,38.0,-100.00,West,265,7.0,10.0,80,-99.99,,,-99.99,,2013-03-07 02:51:00,
2013-03-06 19:01:00,42.0,38.0,-100.00,West,270,6.0,11.0,86,-99.99,,,-99.99,,2013-03-07 03:01:00,
2013-03-06 19:11:00,42.0,39.0,-100.00,West,279,6.0,9.0,88,-99.99,,,-99.99,,2013-03-07 03:11:00,
2013-03-06 19:21:00,41.0,39.0,-100.00,West,279,7.0,10.0,92,-99.99,,,-99.99,,2013-03-07 03:21:00,
2013-03-06 19:31:00,41.0,39.0,-100.00,West,279,6.0,9.0,94,-99.99,,,-99.99,,2013-03-07 03:31:00,
2013-03-06 19:41:00,40.0,39.0,-100.00,West,272,6.0,8.0,95,-99.99,,,-99.99,,2013-03-07 03:41:00,
2013-03-06 19:51:00,40.0,39.0,-100.00,West,274,7.0,9.0,96,-99.99,,,-99.99,,2013-03-07 03:51:00,
2013-03-06 20:01:00,40.0,39.0,-100.00,West,270,9.0,12.0,98,-99.99,,,-99.99,,2013-03-07 04:01:00,
2013-03-06 20:11:00,39.0,39.0,-100.00,West,267,8.0,11.0,99,-99.99,,,-99.99,,2013-03-07 04:11:00,
2013-03-06 20:21:00,39.0,39.0,-100.00,West,261,8.0,11.0,100,-99.99,,,-99.99,,2013-03-07 04:21:00,
2013-03-06 20:31:00,38.0,38.0,-100.00,West,261,8.0,11.0,100,-99.99,,,-99.99,,2013-03-07 04:31:00,
2013-03-06 20:41:00,38.0,38.0,-100.00,WSW,257,7.0,10.0,100,-99.99,,,-99.99,,2013-03-07 04:41:00,
2013-03-06 20:51:00,37.0,37.0,-100.00,WSW,258,6.0,8.0,100,-99.99,,,-99.99,,2013-03-07 04:51:00,
2013-03-06 21:01:00,37.0,37.0,-100.00,WSW,258,6.0,8.0,100,-99.99,,,-99.99,,2013-03-07 05:01:00,
2013-03-06 21:12:00,37.0,37.0,-100.00,WSW,258,6.0,8.0,100,-99.99,,,-99.99,,2013-03-07 05:12:00,
2013-03-06 21:22:00,38.0,38.0,-100.00,West,266,6.0,8.0,100,-99.99,,,-99.99,,2013-03-07 05:22:00,
2013-03-06 21:31:00,38.0,38.0,-100.00,West,271,7.0,9.0,100,-99.99,,,-99.99,,2013-03-07 05:31:00,
2013-03-06 21:41:00,38.0,38.0,-100.00,West,271,7.0,9.0,100,-99.99,,,-99.99,,2013-03-07 05:41:00,
2013-03-06 21:52:00,38.0,38.0,-100.00,West,276,6.0,8.0,100,-99.99,,,-99.99,,2013-03-07 05:52:00,
2013-03-06 22:01:00,38.0,38.0,-100.00,West,280,6.0,7.0,100,-99.99,,,-99.99,,2013-03-07 06:01:00,
2013-03-06 22:11:00,39.0,39.0,-100.00,West,271,8.0,11.0,100,-99.99,,,-99.99,,2013-03-07 06:11:00,
2013-03-06 22:21:00,39.0,38.0,-100.00,West,267,9.0,11.0,98,-99.99,,,-99.99,,2013-03-07 06:21:00,
2013-03-06 22:31:00,39.0,38.0,-100.00,West,269,9.0,11.0,98,-99.99,,,-99.99,,2013-03-07 06:31:00,
2013-03-06 22:41:00,40.0,39.0,-100.00,West,271,9.0,11.0,97,-99.99,,,-99.99,,2013-03-07 06:41:00,
2013-03-06 22:51:00,39.0,38.0,-100.00,West,272,8.0,11.0,97,-99.99,,,-99.99,,2013-03-07 06:51:00,
2013-03-06 23:01:00,39.0,38.0,-100.00,West,272,8.0,11.0,97,-99.99,,,-99.99,,2013-03-07 07:01:00,
2013-03-06 23:11:00,39.0,38.0,-100.00,West,262,7.0,10.0,98,-99.99,,,-99.99,,2013-03-07 07:11:00,
2013-03-06 23:21:00,38.0,38.0,-100.00,WSW,250,7.0,10.0,99,-99.99,,,-99.99,,2013-03-07 07:21:00,
2013-03-06 23:31:00,38.0,38.0,-100.00,WSW,249,8.0,10.0,100,-99.99,,,-99.99,,2013-03-07 07:31:00,
2013-03-06 23:41:00,38.0,38.0,-100.00,WSW,252,8.0,11.0,100,-99.99,,,-99.99,,2013-03-07 07:41:00,
2013-03-06 23:52:00,38.0,38.0,-100.00,WSW,252,8.0,11.0,99,-99.99,,,-99.99,,2013-03-07 07:52:00,